createdAt,value
2019-02-20T00:01:49.232Z,2.12
2019-02-20T00:04:17.699Z,2.15
2019-02-20T00:06:46.140Z,1.80
2019-02-20T00:09:14.585Z,1.40
2019-02-20T00:11:43.079Z,1.52
2019-02-20T00:14:11.732Z,1.95
2019-02-20T00:16:40.241Z,1.75
2019-02-20T00:19:08.710Z,1.80
2019-02-20T00:21:37.185Z,1.60
2019-02-20T00:24:05.611Z,1.67
2019-02-20T00:26:34.046Z,1.52
2019-02-20T00:29:02.508Z,1.77
2019-02-20T00:31:30.930Z,1.42
2019-02-20T00:33:59.453Z,2.80
2019-02-20T00:36:27.875Z,2.75
2019-02-20T00:38:56.327Z,2.60
2019-02-20T00:41:24.779Z,1.50
2019-02-20T00:43:54.875Z,1.37
2019-02-20T00:46:24.970Z,0.90
2019-02-20T00:48:58.079Z,1.52
2019-02-20T00:51:37.139Z,1.87
2019-02-20T00:54:09.197Z,0.95
2019-02-20T00:56:37.220Z,2.05
2019-02-20T00:59:05.707Z,3.05
2019-02-20T01:01:34.131Z,1.92
2019-02-20T01:04:02.683Z,2.40
2019-02-20T01:06:31.268Z,2.25
2019-02-20T01:08:59.712Z,1.20
2019-02-20T01:11:28.154Z,1.70
2019-02-20T01:13:56.616Z,1.40
2019-02-20T01:16:25.056Z,1.52
2019-02-20T01:18:53.496Z,1.05
2019-02-20T01:21:22.015Z,0.95
2019-02-20T01:23:50.420Z,1.50
2019-02-20T01:26:18.895Z,1.20
2019-02-20T01:28:47.381Z,1.37
2019-02-20T01:31:15.801Z,1.70
2019-02-20T01:33:44.245Z,1.50
2019-02-20T01:36:12.796Z,1.22
2019-02-20T01:38:41.230Z,1.05
2019-02-20T01:41:09.801Z,1.30
2019-02-20T01:43:38.293Z,1.05
2019-02-20T01:46:06.726Z,1.80
2019-02-20T01:48:35.172Z,0.80
2019-02-20T01:51:03.603Z,0.90
2019-02-20T01:53:32.058Z,1.30
2019-02-20T01:56:00.547Z,1.30
2019-02-20T01:58:29.263Z,1.47
2019-02-20T02:00:57.714Z,1.62
2019-02-20T02:03:26.156Z,1.25
2019-02-20T02:05:54.620Z,1.55
2019-02-20T02:08:23.097Z,1.70
2019-02-20T02:10:51.622Z,1.05
2019-02-20T02:13:20.056Z,0.98
2019-02-20T02:15:48.486Z,1.07
2019-02-20T02:18:17.172Z,1.00
2019-02-20T02:20:47.196Z,1.57
2019-02-20T02:23:19.802Z,1.80
2019-02-20T02:25:45.872Z,1.95
2019-02-20T02:28:14.314Z,1.20
2019-02-20T02:30:42.825Z,1.75
2019-02-20T02:33:11.328Z,1.10
2019-02-20T02:35:39.792Z,1.50
2019-02-20T02:38:08.283Z,1.80
2019-02-20T02:40:36.776Z,1.77
2019-02-20T02:43:05.268Z,1.65
2019-02-20T02:45:33.791Z,1.92
2019-02-20T02:48:02.260Z,1.45
2019-02-20T02:50:30.764Z,1.30
2019-02-20T02:52:59.286Z,1.20
2019-02-20T02:55:27.726Z,1.30
2019-02-20T02:57:56.152Z,1.52
2019-02-20T03:00:24.601Z,1.80
2019-02-20T03:02:53.073Z,1.35
2019-02-20T03:05:21.575Z,1.17
2019-02-20T03:07:50.011Z,1.55
2019-02-20T03:10:18.601Z,1.20
2019-02-20T03:12:47.032Z,1.50
2019-02-20T03:15:15.469Z,1.07
2019-02-20T03:17:43.982Z,1.60
2019-02-20T03:20:12.438Z,1.45
2019-02-20T03:22:40.953Z,1.52
2019-02-20T03:25:09.389Z,1.47
2019-02-20T03:27:37.867Z,1.27
2019-02-20T03:30:07.965Z,1.70
2019-02-20T03:32:36.610Z,1.87
2019-02-20T03:35:06.482Z,1.62
2019-02-20T03:37:34.948Z,1.20
2019-02-20T03:40:03.688Z,0.80
2019-02-20T03:42:32.112Z,1.52
2019-02-20T03:45:00.552Z,1.60
2019-02-20T03:47:29.013Z,1.40
2019-02-20T03:49:57.574Z,0.90
2019-02-20T03:52:25.997Z,1.50
2019-02-20T03:54:54.456Z,1.20
2019-02-20T03:57:23.221Z,0.93
2019-02-20T03:59:51.689Z,1.75
2019-02-20T04:02:20.306Z,0.88
2019-02-20T04:04:48.773Z,1.05
2019-02-20T04:07:17.199Z,0.85
2019-02-20T04:09:45.641Z,1.00
2019-02-20T04:12:14.099Z,1.30
2019-02-20T04:14:42.888Z,1.40
2019-02-20T04:17:11.360Z,1.22
2019-02-20T04:19:39.969Z,1.32
2019-02-20T04:22:08.491Z,1.00
2019-02-20T04:24:36.957Z,1.12
2019-02-20T04:27:05.380Z,1.15
2019-02-20T04:29:33.818Z,0.90
2019-02-20T04:32:02.304Z,1.70
2019-02-20T04:34:30.752Z,2.42
2019-02-20T04:36:59.196Z,1.57
2019-02-20T04:39:27.646Z,1.92
2019-02-20T04:41:56.049Z,1.82
2019-02-20T04:44:24.495Z,1.32
2019-02-20T04:46:52.955Z,1.40
2019-02-20T04:49:21.400Z,1.15
2019-02-20T04:51:49.908Z,1.85
2019-02-20T04:54:18.439Z,1.12
2019-02-20T04:56:46.866Z,1.47
2019-02-20T04:59:15.365Z,1.75
2019-02-20T05:01:43.876Z,1.20
2019-02-20T05:04:12.311Z,1.40
2019-02-20T05:06:40.853Z,1.92
2019-02-20T05:09:09.231Z,1.65
2019-02-20T05:11:38.115Z,1.22
2019-02-20T05:14:07.906Z,1.20
2019-02-20T05:16:36.369Z,1.30
2019-02-20T05:19:04.840Z,1.25
2019-02-20T05:21:33.280Z,1.92
2019-02-20T05:24:01.813Z,1.77
2019-02-20T05:26:30.527Z,1.32
2019-02-20T05:28:59.007Z,1.37
2019-02-20T05:31:27.470Z,1.75
2019-02-20T05:33:55.915Z,1.27
2019-02-20T05:36:24.351Z,1.60
2019-02-20T05:38:53.074Z,1.20
2019-02-20T05:41:21.562Z,2.10
2019-02-20T05:43:50.105Z,2.22
2019-02-20T05:46:18.709Z,1.95
2019-02-20T05:48:47.188Z,2.90
2019-02-20T05:51:15.661Z,1.77
2019-02-20T05:53:44.092Z,1.55
2019-02-20T05:56:12.597Z,2.58
2019-02-20T05:58:41.532Z,1.80
2019-02-20T06:01:10.028Z,2.17
2019-02-20T06:03:38.557Z,1.80
2019-02-20T06:06:07.007Z,1.70
2019-02-20T06:08:35.436Z,2.33
2019-02-20T06:11:13.898Z,2.60
2019-02-20T06:13:34.173Z,2.87
2019-02-20T06:16:02.652Z,2.05
2019-02-20T06:18:31.126Z,1.60
2019-02-20T06:20:59.901Z,2.30
2019-02-20T06:23:28.429Z,2.20
2019-02-20T06:25:57.380Z,2.02
2019-02-20T06:28:25.892Z,2.42
2019-02-20T06:30:54.359Z,3.92
2019-02-20T06:33:22.946Z,2.60
2019-02-20T06:35:51.399Z,2.35
2019-02-20T06:38:19.852Z,3.17
2019-02-20T06:40:48.284Z,2.90
2019-02-20T06:43:16.767Z,3.27
2019-02-20T06:45:45.191Z,1.60
2019-02-20T06:48:13.669Z,1.95
2019-02-20T06:50:42.202Z,2.33
2019-02-20T06:53:10.662Z,2.08
2019-02-20T06:55:39.114Z,1.90
2019-02-20T06:58:07.665Z,2.62
2019-02-20T07:00:36.101Z,1.72
2019-02-20T07:03:04.586Z,1.70
2019-02-20T07:05:35.377Z,2.02
2019-02-20T07:08:26.343Z,1.82
2019-02-20T07:11:16.971Z,1.80
2019-02-20T07:13:57.221Z,1.40
2019-02-20T07:16:54.229Z,2.50
2019-02-20T07:19:25.709Z,3.08
2019-02-20T07:22:15.357Z,2.70
2019-02-20T07:25:03.375Z,3.45
2019-02-20T07:27:55.448Z,2.40
2019-02-20T07:30:23.927Z,2.55
2019-02-20T07:32:52.518Z,2.70
2019-02-20T07:35:20.933Z,2.67
2019-02-20T07:37:49.417Z,3.67
2019-02-20T07:40:17.861Z,2.60
2019-02-20T07:42:46.644Z,2.25
2019-02-20T07:45:15.373Z,2.40
2019-02-20T07:47:44.004Z,2.45
2019-02-20T07:50:13.275Z,2.42
2019-02-20T07:52:41.818Z,2.80
2019-02-20T07:55:13.121Z,2.95
2019-02-20T07:57:40.440Z,2.42
2019-02-20T08:00:13.680Z,2.92
2019-02-20T08:02:42.122Z,3.02
2019-02-20T08:05:10.852Z,2.40
2019-02-20T08:07:39.308Z,3.83
2019-02-20T08:10:10.371Z,3.40
2019-02-20T08:12:38.893Z,2.37
2019-02-20T08:15:10.002Z,2.60
2019-02-20T08:17:38.471Z,2.50
2019-02-20T08:20:09.039Z,4.95
2019-02-20T08:22:37.479Z,3.42
2019-02-20T08:25:07.404Z,3.30
2019-02-20T08:27:35.824Z,3.45
2019-02-20T08:30:06.766Z,3.98
2019-02-20T08:32:35.245Z,3.05
2019-02-20T08:35:04.061Z,4.47
2019-02-20T08:37:32.527Z,3.62
2019-02-20T08:40:00.994Z,2.77
2019-02-20T08:42:29.447Z,3.15
2019-02-20T08:44:58.098Z,3.17
2019-02-20T08:47:26.527Z,2.58
2019-02-20T08:49:54.991Z,3.20
2019-02-20T08:52:23.439Z,2.90
2019-02-20T08:54:51.879Z,2.92
2019-02-20T08:57:20.348Z,3.58
2019-02-20T08:59:48.775Z,4.22
2019-02-20T09:02:17.260Z,3.50
2019-02-20T09:04:45.708Z,3.22
2019-02-20T09:07:14.170Z,4.12
2019-02-20T09:09:42.600Z,4.00
2019-02-20T09:12:11.059Z,3.17
2019-02-20T09:14:39.493Z,3.22
2019-02-20T09:17:07.942Z,4.97
2019-02-20T09:19:36.374Z,3.98
2019-02-20T09:22:04.844Z,4.10
2019-02-20T09:24:33.288Z,4.22
2019-02-20T09:27:01.735Z,3.65
2019-02-20T09:29:30.256Z,3.30
2019-02-20T09:31:58.786Z,3.40
2019-02-20T09:34:27.313Z,3.35
2019-02-20T09:36:55.772Z,2.50
2019-02-20T09:39:34.711Z,2.72
2019-02-20T09:42:03.878Z,3.37
2019-02-20T09:44:35.502Z,5.10
2019-02-20T09:47:04.038Z,5.45
2019-02-20T09:49:32.458Z,4.45
2019-02-20T09:52:00.967Z,3.47
2019-02-20T09:54:29.480Z,5.85
2019-02-20T09:56:58.380Z,3.60
2019-02-20T09:59:26.838Z,4.42
2019-02-20T10:01:55.323Z,6.95
2019-02-20T10:04:23.819Z,3.52
2019-02-20T10:06:52.282Z,4.78
2019-02-20T10:09:20.745Z,4.83
2019-02-20T10:11:49.822Z,4.80
2019-02-20T10:14:18.371Z,5.12
2019-02-20T10:16:47.068Z,5.03
2019-02-20T10:19:15.491Z,5.97
2019-02-20T10:21:44.091Z,3.85
2019-02-20T10:24:12.599Z,3.95
2019-02-20T10:26:41.486Z,4.50
2019-02-20T10:29:09.942Z,5.33
2019-02-20T10:31:38.449Z,5.20
2019-02-20T10:34:06.953Z,4.42
2019-02-20T10:36:35.417Z,5.60
2019-02-20T10:39:05.395Z,3.02
2019-02-20T10:41:33.965Z,4.58
2019-02-20T10:44:02.454Z,3.95
2019-02-20T10:46:30.886Z,4.10
2019-02-20T10:48:59.418Z,5.85
2019-02-20T10:51:28.040Z,3.30
2019-02-20T10:53:56.484Z,4.00
2019-02-20T10:56:25.012Z,3.42
2019-02-20T10:58:53.444Z,3.40
2019-02-20T11:01:22.073Z,3.80
2019-02-20T11:03:50.551Z,3.47
2019-02-20T11:06:18.992Z,4.92
2019-02-20T11:08:47.475Z,4.42
2019-02-20T11:11:15.928Z,4.40
2019-02-20T11:13:44.454Z,2.95
2019-02-20T11:16:12.890Z,3.65
2019-02-20T11:18:41.369Z,2.05
2019-02-20T11:21:09.811Z,2.95
2019-02-20T11:23:38.243Z,2.58
2019-02-20T11:26:06.721Z,3.98
2019-02-20T11:28:35.157Z,2.95
2019-02-20T11:31:03.688Z,1.72
2019-02-20T11:33:32.154Z,1.82
2019-02-20T11:36:00.598Z,1.70
2019-02-20T11:38:30.888Z,3.90
2019-02-20T11:40:59.358Z,1.55
2019-02-20T11:43:27.812Z,1.77
2019-02-20T11:45:56.278Z,2.02
2019-02-20T11:48:24.803Z,3.37
2019-02-20T11:50:53.220Z,2.47
2019-02-20T11:53:21.708Z,3.17
2019-02-20T11:55:50.145Z,2.85
2019-02-20T11:58:18.620Z,2.25
2019-02-20T12:00:47.049Z,3.30
2019-02-20T12:03:15.491Z,2.20
2019-02-20T12:05:44.021Z,2.27
2019-02-20T12:08:12.454Z,1.90
2019-02-20T12:10:41.052Z,2.42
2019-02-20T12:13:09.573Z,2.30
2019-02-20T12:15:38.046Z,1.98
2019-02-20T12:18:06.528Z,2.45
2019-02-20T12:20:34.981Z,2.15
2019-02-20T12:23:03.539Z,2.30
2019-02-20T12:25:31.992Z,1.82
2019-02-20T12:28:00.789Z,2.00
2019-02-20T12:30:29.242Z,1.65
2019-02-20T12:32:57.719Z,1.85
2019-02-20T12:35:26.167Z,1.52
2019-02-20T12:37:54.652Z,1.27
2019-02-20T12:40:23.117Z,1.35
2019-02-20T12:42:51.572Z,1.75
2019-02-20T12:45:20.157Z,1.30
2019-02-20T12:47:48.572Z,1.60
2019-02-20T12:50:17.296Z,1.07
2019-02-20T12:52:45.785Z,1.47
2019-02-20T12:55:14.488Z,1.85
2019-02-20T12:57:42.945Z,1.12
2019-02-20T13:00:15.697Z,1.45
2019-02-20T13:02:44.130Z,0.68
2019-02-20T13:05:12.684Z,1.20
2019-02-20T13:07:41.131Z,1.47
2019-02-20T13:10:10.273Z,1.37
2019-02-20T13:12:38.820Z,1.00
2019-02-20T13:15:09.756Z,2.05
2019-02-20T13:17:38.226Z,1.40
2019-02-20T13:20:08.905Z,1.10
2019-02-20T13:22:37.391Z,1.47
2019-02-20T13:25:07.592Z,1.07
2019-02-20T13:27:36.169Z,1.15
2019-02-20T13:30:15.197Z,1.47
2019-02-20T13:32:43.643Z,1.35
2019-02-20T13:35:12.236Z,1.95
2019-02-20T13:37:40.891Z,1.47
2019-02-20T13:40:11.264Z,1.57
2019-02-20T13:42:39.724Z,1.22
2019-02-20T13:45:09.423Z,1.17
2019-02-20T13:47:37.956Z,0.50
2019-02-20T13:50:11.562Z,1.02
2019-02-20T13:52:39.525Z,0.70
2019-02-20T13:55:08.190Z,1.52
2019-02-20T13:57:36.720Z,1.30
2019-02-20T14:00:08.607Z,1.12
2019-02-20T14:02:37.096Z,2.10
2019-02-20T14:05:07.300Z,1.52
2019-02-20T14:07:36.600Z,1.70
2019-02-20T14:10:08.185Z,1.22
2019-02-20T14:12:36.638Z,1.22
2019-02-20T14:15:07.557Z,0.90
2019-02-20T14:17:35.994Z,0.70
2019-02-20T14:20:07.276Z,0.70
2019-02-20T14:22:35.758Z,1.77
2019-02-20T14:25:04.764Z,1.75
2019-02-20T14:27:33.232Z,1.10
2019-02-20T14:30:01.657Z,1.35
2019-02-20T14:32:30.134Z,1.52
2019-02-20T14:34:58.602Z,1.50
2019-02-20T14:37:27.306Z,1.20
2019-02-20T14:39:56.016Z,0.90
2019-02-20T14:42:24.464Z,1.00
2019-02-20T14:44:52.936Z,1.10
2019-02-20T14:47:21.404Z,1.90
2019-02-20T14:49:49.912Z,1.35
2019-02-20T14:52:18.688Z,1.50
2019-02-20T14:54:47.244Z,1.42
2019-02-20T14:57:19.508Z,1.20
2019-02-20T14:59:46.153Z,1.52
2019-02-20T15:02:16.580Z,1.27
2019-02-20T15:04:44.903Z,1.57
2019-02-20T15:07:13.502Z,2.20
2019-02-20T15:09:42.266Z,0.93
2019-02-20T15:12:11.041Z,1.37
2019-02-20T15:14:39.544Z,1.57
2019-02-20T15:17:08.103Z,1.20
2019-02-20T15:19:36.767Z,1.00
2019-02-20T15:22:05.271Z,1.82
2019-02-20T15:24:33.754Z,0.90
2019-02-20T15:27:02.189Z,1.40
2019-02-20T15:29:30.939Z,1.02
2019-02-20T15:31:59.634Z,1.15
2019-02-20T15:34:28.128Z,1.82
2019-02-20T15:36:56.586Z,1.10
2019-02-20T15:39:25.045Z,1.32
2019-02-20T15:41:53.837Z,2.02
2019-02-20T15:44:22.459Z,1.60
2019-02-20T15:46:51.351Z,1.62
2019-02-20T15:49:19.974Z,1.80
2019-02-20T15:51:48.394Z,1.82
2019-02-20T15:54:16.946Z,1.62
2019-02-20T15:56:45.525Z,1.40
2019-02-20T15:59:14.042Z,1.25
2019-02-20T16:01:42.585Z,1.67
2019-02-20T16:04:11.114Z,1.12
2019-02-20T16:06:39.578Z,1.00
2019-02-20T16:09:08.104Z,1.15
2019-02-20T16:11:36.562Z,1.00
2019-02-20T16:14:05.245Z,1.62
2019-02-20T16:16:33.766Z,1.15
2019-02-20T16:19:02.656Z,1.22
2019-02-20T16:21:31.133Z,1.20
2019-02-20T16:23:59.739Z,1.47
2019-02-20T16:26:28.243Z,2.35
2019-02-20T16:28:56.728Z,1.32
2019-02-20T16:31:25.163Z,1.52
2019-02-20T16:33:53.803Z,1.55
2019-02-20T16:36:22.548Z,1.10
2019-02-20T16:38:51.491Z,1.30
2019-02-20T16:41:20.237Z,1.10
2019-02-20T16:43:48.862Z,1.60
2019-02-20T16:46:17.324Z,1.40
2019-02-20T16:48:45.771Z,1.42
2019-02-20T16:51:14.344Z,1.70
2019-02-20T16:53:42.979Z,1.47
2019-02-20T16:56:11.430Z,1.22
2019-02-20T16:58:40.256Z,1.47
2019-02-20T17:01:08.958Z,1.30
2019-02-20T17:03:37.537Z,1.65
2019-02-20T17:06:06.094Z,1.40
2019-02-20T17:08:35.634Z,1.22
2019-02-20T17:11:04.370Z,1.55
2019-02-20T17:13:32.834Z,1.32
2019-02-20T17:16:01.529Z,1.27
2019-02-20T17:18:29.951Z,1.50
2019-02-20T17:20:58.443Z,1.60
2019-02-20T17:23:26.891Z,2.22
2019-02-20T17:25:55.642Z,1.47
2019-02-20T17:28:26.244Z,2.50
2019-02-20T17:30:54.843Z,2.08
2019-02-20T17:33:23.448Z,1.90
2019-02-20T17:35:51.914Z,1.98
2019-02-20T17:38:20.391Z,2.30
2019-02-20T17:40:49.251Z,1.70
2019-02-20T17:43:17.737Z,2.02
2019-02-20T17:45:46.296Z,2.65
2019-02-20T17:48:14.790Z,2.17
2019-02-20T17:50:43.220Z,2.15
2019-02-20T17:53:11.683Z,2.30
2019-02-20T17:55:40.426Z,1.60
2019-02-20T17:58:14.746Z,2.45
2019-02-20T18:00:39.829Z,2.87
2019-02-20T18:03:08.283Z,2.62
2019-02-20T18:05:36.758Z,2.12
2019-02-20T18:08:05.383Z,2.55
2019-02-20T18:10:33.977Z,2.02
2019-02-20T18:13:02.394Z,2.45
2019-02-20T18:15:30.900Z,2.60
2019-02-20T18:17:59.540Z,2.17
2019-02-20T18:20:28.081Z,2.30
2019-02-20T18:22:56.769Z,2.42
2019-02-20T18:25:25.313Z,1.77
2019-02-20T18:27:53.779Z,2.10
2019-02-20T18:30:22.235Z,2.05
2019-02-20T18:32:51.059Z,1.80
2019-02-20T18:35:19.946Z,2.17
2019-02-20T18:37:48.823Z,1.92
2019-02-20T18:40:18.128Z,2.30
2019-02-20T18:42:46.706Z,2.00
2019-02-20T18:45:15.959Z,3.30
2019-02-20T18:47:44.514Z,2.58
2019-02-20T18:50:14.394Z,2.70
2019-02-20T18:52:42.904Z,4.33
2019-02-20T18:55:12.999Z,3.00
2019-02-20T18:57:41.540Z,3.20
2019-02-20T19:00:17.986Z,3.15
2019-02-20T19:02:46.495Z,3.47
2019-02-20T19:05:20.077Z,3.33
2019-02-20T19:07:48.518Z,2.80
2019-02-20T19:10:23.112Z,2.85
2019-02-20T19:15:30.237Z,2.30
2019-02-20T19:18:28.894Z,4.17
2019-02-20T19:21:06.197Z,2.90
2019-02-20T19:23:55.580Z,3.70
2019-02-20T19:26:29.885Z,3.10
2019-02-20T19:29:21.099Z,2.80
2019-02-20T19:32:12.773Z,2.83
2019-02-20T19:34:50.339Z,3.40
2019-02-20T19:37:50.964Z,3.05
2019-02-20T19:40:28.621Z,3.58
2019-02-20T19:43:12.300Z,3.47
2019-02-20T19:46:02.089Z,3.70
2019-02-20T19:48:41.819Z,2.92
2019-02-20T19:51:13.283Z,3.20
2019-02-20T19:54:00.074Z,3.22
2019-02-20T19:56:37.558Z,3.37
2019-02-20T19:59:09.192Z,3.15
2019-02-20T20:02:14.015Z,3.20
2019-02-20T20:04:51.021Z,3.12
2019-02-20T20:07:27.165Z,3.52
2019-02-20T20:10:21.223Z,3.55
2019-02-20T20:12:58.511Z,3.13
2019-02-20T20:15:49.739Z,3.60
2019-02-20T20:18:23.905Z,3.80
2019-02-20T20:20:55.427Z,3.83
2019-02-20T20:23:26.955Z,3.30
2019-02-20T20:26:13.580Z,4.97
2019-02-20T20:29:05.831Z,4.92
2019-02-20T20:31:59.943Z,4.25
2019-02-20T20:34:43.647Z,6.22
2019-02-20T20:37:15.148Z,4.53
2019-02-20T20:40:12.335Z,5.08
2019-02-20T20:42:51.789Z,4.87
2019-02-20T20:45:31.832Z,6.30
2019-02-20T20:48:22.406Z,5.53
2019-02-20T20:51:09.205Z,4.30
2019-02-20T20:54:00.566Z,4.90
2019-02-20T20:56:37.586Z,5.33
2019-02-20T20:59:18.085Z,4.33
2019-02-20T21:01:55.673Z,4.35
2019-02-20T21:04:46.703Z,4.33
2019-02-20T21:07:29.981Z,5.30
2019-02-20T21:10:13.480Z,4.97
2019-02-20T21:13:03.070Z,5.42
2019-02-20T21:15:54.005Z,3.98
2019-02-20T21:18:36.841Z,7.42
2019-02-20T21:21:14.268Z,6.05
2019-02-20T21:23:48.725Z,5.97
2019-02-20T21:26:20.248Z,4.40
2019-02-20T21:29:11.411Z,5.50
2019-02-20T21:32:14.756Z,4.67
2019-02-20T21:35:01.458Z,4.80
2019-02-20T21:37:44.380Z,6.97
2019-02-20T21:40:24.744Z,4.62
2019-02-20T21:43:14.197Z,4.90
2019-02-20T21:46:01.141Z,7.08
2019-02-20T21:48:47.933Z,5.85
2019-02-20T21:51:19.431Z,5.55
2019-02-20T21:54:18.718Z,4.90
2019-02-20T21:56:52.829Z,4.25
2019-02-20T21:59:24.354Z,5.55
2019-02-20T22:02:12.502Z,4.25
2019-02-20T22:04:55.969Z,5.30
2019-02-20T22:07:50.051Z,6.20
2019-02-20T22:10:24.563Z,6.30
2019-02-20T22:15:47.983Z,4.12
2019-02-20T22:18:31.622Z,5.45
2019-02-20T22:21:22.398Z,4.50
2019-02-20T22:23:59.905Z,5.05
2019-02-20T22:26:40.045Z,5.80
2019-02-20T22:29:11.544Z,5.58
2019-02-20T22:32:02.345Z,5.65
2019-02-20T22:34:54.466Z,5.28
2019-02-20T22:37:34.651Z,5.28
2019-02-20T22:40:30.758Z,5.08
2019-02-20T22:43:02.379Z,5.00
2019-02-20T22:45:39.604Z,5.25
2019-02-20T22:48:11.192Z,4.40
2019-02-20T22:50:42.700Z,4.05
2019-02-20T22:53:49.049Z,3.90
2019-02-20T22:56:23.396Z,4.05
2019-02-20T22:59:14.435Z,5.08
2019-02-20T23:01:48.932Z,4.60
2019-02-20T23:07:12.758Z,3.65
2019-02-20T23:09:52.626Z,4.60
2019-02-20T23:12:29.566Z,4.12
2019-02-20T23:14:58.918Z,3.20
2019-02-20T23:17:28.599Z,3.10
2019-02-20T23:19:57.353Z,4.65
2019-02-20T23:22:26.035Z,3.20
2019-02-20T23:24:54.850Z,5.87
2019-02-20T23:27:23.425Z,4.60
2019-02-20T23:29:52.037Z,3.85
2019-02-20T23:32:20.546Z,3.87
2019-02-20T23:34:49.000Z,4.10
2019-02-20T23:37:17.467Z,3.95
2019-02-20T23:39:45.946Z,3.70
2019-02-20T23:42:14.417Z,3.90
2019-02-20T23:44:42.990Z,3.90
2019-02-20T23:47:11.471Z,4.15
2019-02-20T23:49:39.884Z,4.08
2019-02-20T23:52:11.115Z,4.15
2019-02-20T23:54:39.702Z,4.03
2019-02-20T23:57:09.255Z,4.87
2019-02-20T23:59:39.419Z,3.35
